createdAt,value
2023-04-21T00:00:00.206Z,94356.75
2023-04-21T00:02:27.693Z,94337.47
2023-04-21T00:04:56.504Z,94364.56
2023-04-21T00:07:23.348Z,94337.81
2023-04-21T00:09:50.019Z,94319.50
2023-04-21T00:12:16.973Z,94333.16
2023-04-21T00:14:44.187Z,94334.88
2023-04-21T00:17:10.885Z,94336.13
2023-04-21T00:19:37.827Z,94336.19
2023-04-21T00:22:08.320Z,94349.88
2023-04-21T00:24:35.116Z,94331.22
2023-04-21T00:27:03.724Z,94327.25
2023-04-21T00:29:30.680Z,94340.19
2023-04-21T00:31:57.715Z,94355.50
2023-04-21T00:34:24.532Z,94321.81
2023-04-21T00:36:52.167Z,94349.38
2023-04-21T00:39:19.047Z,94357.25
2023-04-21T00:41:46.870Z,94344.34
2023-04-21T00:44:13.853Z,94353.75
2023-04-21T00:46:41.148Z,94328.66
2023-04-21T00:49:08.204Z,94301.28
2023-04-21T00:51:37.115Z,94318.78
2023-04-21T00:54:09.406Z,94297.06
2023-04-21T00:56:37.019Z,94322.03
2023-04-21T00:59:04.215Z,94275.00
2023-04-21T01:01:32.841Z,94320.22
2023-04-21T01:04:00.990Z,94336.13
2023-04-21T01:06:36.963Z,94310.38
2023-04-21T01:09:05.375Z,94292.63
2023-04-21T01:11:32.323Z,94302.69
2023-04-21T01:14:00.401Z,94312.41
2023-04-21T01:16:27.328Z,94318.03
2023-04-21T01:18:54.060Z,94325.28
2023-04-21T01:21:21.854Z,94323.31
2023-04-21T01:23:49.260Z,94337.25
2023-04-21T01:26:22.972Z,94309.84
2023-04-21T01:28:50.240Z,94272.63
2023-04-21T01:31:17.912Z,94315.72
2023-04-21T01:33:45.370Z,94334.28
2023-04-21T01:36:12.201Z,94315.66
2023-04-21T01:38:42.710Z,94313.72
2023-04-21T01:41:10.895Z,94306.09
2023-04-21T01:43:38.206Z,94329.19
2023-04-21T01:46:06.224Z,94333.41
2023-04-21T01:48:33.194Z,94320.31
2023-04-21T01:51:00.118Z,94329.56
2023-04-21T01:53:27.147Z,94308.69
2023-04-21T01:55:53.972Z,94322.06
2023-04-21T01:58:22.256Z,94331.97
2023-04-21T02:00:49.552Z,94328.41
2023-04-21T02:03:16.642Z,94318.41
2023-04-21T02:05:45.983Z,94313.63
2023-04-21T02:08:12.963Z,94321.84
2023-04-21T02:10:41.131Z,94330.31
2023-04-21T02:13:11.634Z,94301.81
2023-04-21T02:15:38.387Z,94336.66
2023-04-21T02:18:06.576Z,94292.16
2023-04-21T02:20:33.371Z,94304.44
2023-04-21T02:23:00.951Z,94315.59
2023-04-21T02:25:28.259Z,94302.41
2023-04-21T02:27:55.046Z,94293.56
2023-04-21T02:30:21.886Z,94299.91
2023-04-21T02:32:48.746Z,94321.75
2023-04-21T02:35:15.686Z,94321.63
2023-04-21T02:37:42.365Z,94307.16
2023-04-21T02:40:09.771Z,94317.63
2023-04-21T02:42:36.565Z,94291.81
2023-04-21T02:45:03.644Z,94317.84
2023-04-21T02:47:30.749Z,94318.94
2023-04-21T02:49:57.483Z,94287.03
2023-04-21T02:52:24.885Z,94283.69
2023-04-21T02:54:51.672Z,94307.28
2023-04-21T02:57:18.481Z,94311.75
2023-04-21T02:59:45.965Z,94300.72
2023-04-21T03:02:12.786Z,94320.19
2023-04-21T03:04:39.605Z,94316.97
2023-04-21T03:07:12.020Z,94324.78
2023-04-21T03:09:39.886Z,94301.41
2023-04-21T03:12:06.986Z,94291.03
2023-04-21T03:14:36.784Z,94309.91
2023-04-21T03:17:03.648Z,94321.94
2023-04-21T03:19:31.375Z,94320.56
2023-04-21T03:21:58.091Z,94313.00
2023-04-21T03:24:24.913Z,94307.84
2023-04-21T03:26:51.948Z,94284.84
2023-04-21T03:29:19.105Z,94309.59
2023-04-21T03:31:46.119Z,94279.91
2023-04-21T03:34:12.931Z,94273.03
2023-04-21T03:36:39.699Z,94288.88
2023-04-21T03:39:19.314Z,94319.06
2023-04-21T03:41:48.232Z,94310.66
2023-04-21T03:44:15.282Z,94318.53
2023-04-21T03:46:41.997Z,94305.94
2023-04-21T03:49:08.777Z,94312.44
2023-04-21T03:51:35.616Z,94298.28
2023-04-21T03:54:02.424Z,94298.94
2023-04-21T03:56:30.500Z,94300.75
2023-04-21T03:58:57.251Z,94298.38
2023-04-21T04:01:23.989Z,94303.59
2023-04-21T04:03:50.977Z,94287.88
2023-04-21T04:06:18.030Z,94291.47
2023-04-21T04:08:45.064Z,94279.97
2023-04-21T04:11:11.828Z,94263.50
2023-04-21T04:13:38.656Z,94284.38
2023-04-21T04:16:06.236Z,94266.44
2023-04-21T04:18:32.908Z,94279.03
2023-04-21T04:21:06.245Z,94273.22
2023-04-21T04:23:33.761Z,94267.53
2023-04-21T04:26:01.694Z,94276.94
2023-04-21T04:28:28.934Z,94286.81
2023-04-21T04:30:55.792Z,94266.88
2023-04-21T04:33:22.622Z,94266.91
2023-04-21T04:35:49.409Z,94273.53
2023-04-21T04:38:16.451Z,94269.19
2023-04-21T04:40:43.620Z,94272.06
2023-04-21T04:43:12.999Z,94284.44
2023-04-21T04:45:39.718Z,94283.38
2023-04-21T04:48:07.517Z,94293.69
2023-04-21T04:50:34.394Z,94295.66
2023-04-21T04:53:01.490Z,94295.81
2023-04-21T04:55:28.250Z,94309.03
2023-04-21T04:57:54.964Z,94309.66
2023-04-21T05:00:22.558Z,94300.94
2023-04-21T05:02:49.488Z,94305.16
2023-04-21T05:05:16.725Z,94316.19
2023-04-21T05:07:43.532Z,94313.72
2023-04-21T05:10:10.475Z,94312.31
2023-04-21T05:12:38.011Z,94312.66
2023-04-21T05:15:06.428Z,94314.47
2023-04-21T05:17:34.190Z,94337.03
2023-04-21T05:20:00.977Z,94330.25
2023-04-21T05:22:27.808Z,94300.94
2023-04-21T05:24:54.645Z,94318.81
2023-04-21T05:27:21.574Z,94309.38
2023-04-21T05:29:48.379Z,94334.81
2023-04-21T05:32:15.475Z,94321.34
2023-04-21T05:34:42.574Z,94309.47
2023-04-21T05:37:11.798Z,94331.47
2023-04-21T05:39:38.607Z,94333.22
2023-04-21T05:42:05.618Z,94320.66
2023-04-21T05:44:32.479Z,94339.44
2023-04-21T05:46:59.214Z,94351.34
2023-04-21T05:49:25.888Z,94321.72
2023-04-21T05:51:53.227Z,94332.34
2023-04-21T05:54:20.174Z,94317.97
2023-04-21T05:56:48.380Z,94339.38
2023-04-21T05:59:15.481Z,94330.69
2023-04-21T06:01:43.172Z,94322.22
2023-04-21T06:04:10.116Z,94303.22
2023-04-21T06:06:37.184Z,94311.00
2023-04-21T06:09:03.990Z,94305.63
2023-04-21T06:11:30.960Z,94300.63
2023-04-21T06:13:59.847Z,94301.41
2023-04-21T06:16:27.172Z,94323.72
2023-04-21T06:18:54.663Z,94314.28
2023-04-21T06:21:21.894Z,94317.59
2023-04-21T06:23:48.718Z,94339.38
2023-04-21T06:26:15.684Z,94259.91
2023-04-21T06:28:42.529Z,94295.59
2023-04-21T06:31:15.280Z,94325.84
2023-04-21T06:33:42.339Z,94314.84
2023-04-21T06:36:09.097Z,94287.13
2023-04-21T06:38:35.942Z,94296.91
2023-04-21T06:41:04.652Z,94320.94
2023-04-21T06:43:31.700Z,94287.56
2023-04-21T06:45:58.464Z,94284.78
2023-04-21T06:48:25.282Z,94277.91
2023-04-21T06:50:52.470Z,94291.50
2023-04-21T06:53:19.214Z,94321.03
2023-04-21T06:55:46.378Z,94264.50
2023-04-21T06:58:13.697Z,94310.13
2023-04-21T07:00:40.470Z,94296.34
2023-04-21T07:03:07.750Z,94290.53
2023-04-21T07:05:34.640Z,94296.47
2023-04-21T07:08:01.517Z,94322.63
2023-04-21T07:10:29.276Z,94326.06
2023-04-21T07:12:56.191Z,94323.72
2023-04-21T07:15:23.279Z,94283.00
2023-04-21T07:17:50.197Z,94296.78
2023-04-21T07:20:18.800Z,94299.78
2023-04-21T07:22:45.736Z,94279.03
2023-04-21T07:25:12.737Z,94301.16
2023-04-21T07:27:39.569Z,94266.56
2023-04-21T07:30:07.960Z,94293.69
2023-04-21T07:32:35.206Z,94302.81
2023-04-21T07:35:03.165Z,94278.41
2023-04-21T07:37:29.934Z,94289.09
2023-04-21T07:39:56.697Z,94337.94
2023-04-21T07:42:24.512Z,94311.00
2023-04-21T07:44:51.322Z,94277.41
2023-04-21T07:47:18.571Z,94292.88
2023-04-21T07:49:45.681Z,94288.22
2023-04-21T07:52:12.564Z,94294.78
2023-04-21T07:54:39.631Z,94316.66
2023-04-21T07:57:07.273Z,94300.91
2023-04-21T07:59:34.033Z,94313.47
2023-04-21T08:02:01.468Z,94322.31
2023-04-21T08:04:28.357Z,94336.25
2023-04-21T08:06:55.921Z,94338.88
2023-04-21T08:09:23.527Z,94315.66
2023-04-21T08:11:50.388Z,94352.91
2023-04-21T08:14:17.608Z,94333.66
2023-04-21T08:16:44.872Z,94328.88
2023-04-21T08:19:11.737Z,94323.00
2023-04-21T08:21:40.116Z,94322.50
2023-04-21T08:24:07.197Z,94313.28
2023-04-21T08:26:35.074Z,94327.78
2023-04-21T08:29:04.393Z,94261.91
2023-04-21T08:31:31.555Z,94286.88
2023-04-21T08:34:01.756Z,94325.22
2023-04-21T08:36:30.579Z,94326.97
2023-04-21T08:38:58.220Z,94306.69
2023-04-21T08:41:26.419Z,94347.31
2023-04-21T08:43:53.897Z,94327.56
2023-04-21T08:46:21.642Z,94348.03
2023-04-21T08:48:48.910Z,94350.47
2023-04-21T08:51:22.951Z,94339.66
2023-04-21T08:53:50.448Z,94288.78
2023-04-21T08:56:17.245Z,94333.63
2023-04-21T08:58:43.984Z,94266.28
2023-04-21T09:01:12.163Z,94331.03
2023-04-21T09:03:39.288Z,94303.88
2023-04-21T09:06:09.793Z,94301.31
2023-04-21T09:08:52.581Z,94324.84
2023-04-21T09:11:19.754Z,94269.72
2023-04-21T09:13:46.516Z,94284.63
2023-04-21T09:16:22.253Z,94296.13
2023-04-21T09:18:51.699Z,94271.53
2023-04-21T09:21:19.853Z,94324.56
2023-04-21T09:23:51.354Z,94316.28
2023-04-21T09:26:19.866Z,94327.19
2023-04-21T09:28:48.441Z,94305.31
2023-04-21T09:31:17.020Z,94287.84
2023-04-21T09:33:57.752Z,94301.22
2023-04-21T09:36:28.457Z,94318.16
2023-04-21T09:39:24.424Z,94295.88
2023-04-21T09:41:46.072Z,94321.06
2023-04-21T09:44:12.861Z,94415.25
2023-04-21T09:46:43.959Z,94351.50
2023-04-21T09:49:13.893Z,94365.78
2023-04-21T09:56:49.953Z,94337.72
2023-04-21T09:59:23.733Z,94386.50
2023-04-21T10:01:54.990Z,94366.59
2023-04-21T10:04:23.814Z,94367.78
2023-04-21T10:06:51.996Z,94353.09
2023-04-21T10:09:22.821Z,94369.16
2023-04-21T10:11:50.248Z,94355.66
2023-04-21T10:14:17.226Z,94345.66
2023-04-21T10:16:44.277Z,94338.00
2023-04-21T10:19:28.157Z,94343.44
2023-04-21T10:21:58.083Z,94327.06
2023-04-21T10:24:28.931Z,94289.88
2023-04-21T10:27:02.239Z,94241.94
2023-04-21T10:29:40.185Z,94287.78
2023-04-21T10:32:11.876Z,94247.59
2023-04-21T10:34:39.165Z,94261.72
2023-04-21T10:37:06.627Z,94266.47
2023-04-21T10:39:45.555Z,94225.44
2023-04-21T10:42:29.970Z,94233.16
2023-04-21T10:44:56.632Z,94243.44
2023-04-21T10:47:28.756Z,94173.28
2023-04-21T10:50:00.578Z,94243.97
2023-04-21T10:52:33.690Z,94336.69
2023-04-21T10:55:00.419Z,94384.72
2023-04-21T10:57:32.828Z,94296.47
2023-04-21T10:59:59.918Z,94288.69
2023-04-21T11:02:27.799Z,94300.13
2023-04-21T11:04:55.753Z,94233.72
2023-04-21T11:07:26.943Z,94233.13
2023-04-21T11:10:08.521Z,94280.91
2023-04-21T11:12:38.612Z,94281.59
2023-04-21T11:15:11.803Z,94243.53
2023-04-21T11:17:40.517Z,94253.28
2023-04-21T11:20:07.881Z,94228.31
2023-04-21T11:22:36.994Z,94307.56
2023-04-21T11:25:04.698Z,94272.38
2023-04-21T11:27:31.471Z,94292.81
2023-04-21T11:29:58.661Z,94268.38
2023-04-21T11:32:25.582Z,94289.91
2023-04-21T11:34:52.447Z,94282.28
2023-04-21T11:37:27.170Z,94263.78
2023-04-21T11:39:58.840Z,94231.97
2023-04-21T11:42:25.897Z,94214.78
2023-04-21T11:44:55.895Z,94227.19
2023-04-21T11:47:24.749Z,94232.13
2023-04-21T11:49:55.922Z,94263.81
2023-04-21T11:52:23.865Z,94250.25
2023-04-21T11:55:01.901Z,94238.50
2023-04-21T11:57:31.062Z,94292.75
2023-04-21T12:00:02.552Z,94248.84
2023-04-21T12:02:32.876Z,94276.06
2023-04-21T12:05:03.245Z,94290.56
2023-04-21T12:07:32.253Z,94251.78
2023-04-21T12:09:59.771Z,94228.84
2023-04-21T12:12:27.450Z,94256.47
2023-04-21T12:14:54.721Z,94275.66
2023-04-21T12:17:21.654Z,94238.81
2023-04-21T12:19:48.682Z,94260.28
2023-04-21T12:22:23.643Z,94233.34
2023-04-21T12:24:50.504Z,94254.38
2023-04-21T12:27:19.133Z,94264.03
2023-04-21T12:29:45.845Z,94240.66
2023-04-21T12:32:12.968Z,94260.69
2023-04-21T12:34:39.917Z,94225.00
2023-04-21T12:37:06.928Z,94229.81
2023-04-21T12:39:34.042Z,94209.03
2023-04-21T12:42:01.587Z,94223.72
2023-04-21T12:44:29.000Z,94233.28
2023-04-21T12:46:57.798Z,94186.34
2023-04-21T12:49:26.035Z,94209.06
2023-04-21T12:51:53.090Z,94229.84
2023-04-21T12:54:19.878Z,94206.94
2023-04-21T12:56:46.959Z,94189.75
2023-04-21T12:59:14.161Z,94195.97
2023-04-21T13:01:43.007Z,94176.22
2023-04-21T13:04:10.545Z,94176.00
2023-04-21T13:06:39.095Z,94206.38
2023-04-21T13:09:06.782Z,94181.69
2023-04-21T13:11:33.997Z,94176.09
2023-04-21T13:14:00.760Z,94176.22
2023-04-21T13:16:30.183Z,94193.94
2023-04-21T13:18:58.196Z,94186.53
2023-04-21T13:21:25.116Z,94151.50
2023-04-21T13:23:52.320Z,94177.78
2023-04-21T13:26:19.151Z,94170.03
2023-04-21T13:28:45.887Z,94148.25
2023-04-21T13:31:14.707Z,94140.94
2023-04-21T13:33:42.178Z,94145.88
2023-04-21T13:36:12.576Z,94198.19
2023-04-21T13:38:40.973Z,94215.97
2023-04-21T13:41:09.055Z,94194.88
2023-04-21T13:43:36.329Z,94172.16
2023-04-21T13:46:03.163Z,94173.44
2023-04-21T13:48:30.124Z,94187.47
2023-04-21T13:50:57.249Z,94178.63
2023-04-21T13:53:24.043Z,94215.56
2023-04-21T13:55:51.259Z,94175.00
2023-04-21T13:58:18.245Z,94172.41
2023-04-21T14:00:45.029Z,94144.19
2023-04-21T14:03:12.497Z,94174.63
2023-04-21T14:05:40.177Z,94168.72
2023-04-21T14:08:07.726Z,94130.59
2023-04-21T14:10:34.546Z,94156.63
2023-04-21T14:13:01.470Z,94157.59
2023-04-21T14:15:28.959Z,94160.28
2023-04-21T14:17:56.630Z,94156.41
2023-04-21T14:20:24.206Z,94167.59
2023-04-21T14:22:50.998Z,94174.41
2023-04-21T14:25:18.032Z,94183.13
2023-04-21T14:27:45.289Z,94165.34
2023-04-21T14:30:14.054Z,94168.81
2023-04-21T14:32:45.496Z,94156.34
2023-04-21T14:35:13.693Z,94139.31
2023-04-21T14:37:41.523Z,94126.84
2023-04-21T14:40:09.207Z,94144.03
2023-04-21T14:42:36.135Z,94147.72
2023-04-21T14:45:02.871Z,94140.00
2023-04-21T14:47:30.145Z,94140.38
2023-04-21T14:49:57.827Z,94148.53
2023-04-21T14:52:25.853Z,94099.31
2023-04-21T14:54:53.282Z,94133.25
2023-04-21T14:57:22.118Z,94143.75
2023-04-21T14:59:50.803Z,94173.69
2023-04-21T15:02:19.089Z,94155.22
2023-04-21T15:04:46.450Z,94148.91
2023-04-21T15:07:14.534Z,94143.19
2023-04-21T15:09:45.719Z,94149.75
2023-04-21T15:12:14.563Z,94148.63
2023-04-21T15:14:41.816Z,94137.56
2023-04-21T15:17:08.761Z,94132.69
2023-04-21T15:19:35.692Z,94156.66
2023-04-21T15:22:04.759Z,94140.59
2023-04-21T15:24:31.805Z,94147.84
2023-04-21T15:26:59.520Z,94149.44
2023-04-21T15:29:26.812Z,94160.16
2023-04-21T15:31:53.628Z,94133.88
2023-04-21T15:34:20.461Z,94143.97
2023-04-21T15:36:47.222Z,94114.09
2023-04-21T15:39:14.649Z,94145.06
2023-04-21T15:41:41.719Z,94137.44
2023-04-21T15:44:08.732Z,94126.50
2023-04-21T15:46:35.582Z,94129.22
2023-04-21T15:49:02.507Z,94124.53
2023-04-21T15:51:29.809Z,94133.81
2023-04-21T15:53:56.987Z,94096.03
2023-04-21T15:56:24.336Z,94098.34
2023-04-21T15:58:51.078Z,94114.03
2023-04-21T16:01:18.480Z,94113.25
2023-04-21T16:03:46.451Z,94111.41
2023-04-21T16:06:13.609Z,94132.06
2023-04-21T16:08:40.554Z,94103.59
2023-04-21T16:11:07.579Z,94090.97
2023-04-21T16:13:34.706Z,94096.94
2023-04-21T16:16:01.559Z,94078.41
2023-04-21T16:18:28.928Z,94065.31
2023-04-21T16:20:55.897Z,94074.06
2023-04-21T16:23:24.592Z,94057.06
2023-04-21T16:25:51.416Z,94050.31
2023-04-21T16:28:18.356Z,94045.50
2023-04-21T16:30:46.109Z,94037.28
2023-04-21T16:33:15.234Z,94045.69
2023-04-21T16:35:42.153Z,94046.25
2023-04-21T16:38:09.547Z,94043.75
2023-04-21T16:40:36.313Z,94029.19
2023-04-21T16:43:03.166Z,94009.03
2023-04-21T16:45:30.519Z,94023.72
2023-04-21T16:47:57.942Z,94013.56
2023-04-21T16:50:25.606Z,94019.53
2023-04-21T16:52:52.339Z,94008.06
2023-04-21T16:55:19.274Z,94023.75
2023-04-21T16:57:46.577Z,94027.25
2023-04-21T17:00:14.171Z,94025.22
2023-04-21T17:02:41.122Z,94013.88
2023-04-21T17:05:08.425Z,94007.84
2023-04-21T17:07:35.390Z,93993.44
2023-04-21T17:10:02.318Z,94007.59
2023-04-21T17:12:29.309Z,93980.63
2023-04-21T17:14:56.205Z,94001.09
2023-04-21T17:17:23.420Z,94003.13
2023-04-21T17:19:50.999Z,93995.63
2023-04-21T17:22:17.819Z,93996.66
2023-04-21T17:24:52.631Z,93998.63
2023-04-21T17:27:21.133Z,94033.59
2023-04-21T17:29:48.342Z,94011.16
2023-04-21T17:32:16.082Z,94018.44
2023-04-21T17:34:43.008Z,94015.94
2023-04-21T17:37:10.043Z,94030.25
2023-04-21T17:39:37.292Z,94040.63
2023-04-21T17:42:04.996Z,94042.22
2023-04-21T17:44:32.085Z,94049.19
2023-04-21T17:46:59.844Z,94051.00
2023-04-21T17:49:26.635Z,94049.06
2023-04-21T17:51:53.745Z,94059.13
2023-04-21T17:54:20.916Z,94058.00
2023-04-21T17:56:47.751Z,94070.88
2023-04-21T17:59:14.952Z,94072.94
2023-04-21T18:01:41.837Z,94090.97
2023-04-21T18:04:09.000Z,94082.88
2023-04-21T18:06:36.735Z,94073.72
2023-04-21T18:09:05.102Z,94067.25
2023-04-21T18:11:32.422Z,94071.53
2023-04-21T18:14:00.197Z,94061.47
2023-04-21T18:16:27.363Z,94051.56
2023-04-21T18:18:54.252Z,94068.75
2023-04-21T18:21:21.352Z,94035.06
2023-04-21T18:23:49.162Z,94048.66
2023-04-21T18:26:16.924Z,94048.41
2023-04-21T18:28:43.769Z,94058.63
2023-04-21T18:31:10.839Z,94069.00
2023-04-21T18:33:38.236Z,94068.47
2023-04-21T18:36:05.838Z,94065.75
2023-04-21T18:38:33.229Z,94075.34
2023-04-21T18:41:00.720Z,94072.47
2023-04-21T18:43:27.458Z,94092.16
2023-04-21T18:45:54.635Z,94087.72
2023-04-21T18:48:21.464Z,94078.84
2023-04-21T18:50:48.562Z,94059.66
2023-04-21T18:53:15.759Z,94066.72
2023-04-21T18:55:42.503Z,94071.66
2023-04-21T18:58:09.289Z,94069.47
2023-04-21T19:00:38.921Z,94079.06
2023-04-21T19:03:06.652Z,94105.78
2023-04-21T19:05:35.948Z,94075.53
2023-04-21T19:08:03.379Z,93992.94
2023-04-21T19:10:32.246Z,93982.09
2023-04-21T19:12:59.493Z,94004.91
2023-04-21T19:15:26.411Z,94012.25
2023-04-21T19:17:53.280Z,94045.84
2023-04-21T19:20:20.186Z,94076.28
2023-04-21T19:22:47.560Z,94104.00
2023-04-21T19:25:14.409Z,94115.09
2023-04-21T19:27:41.625Z,94110.06
2023-04-21T19:30:09.087Z,94139.31
2023-04-21T19:32:35.843Z,94133.59
2023-04-21T19:35:02.648Z,94142.88
2023-04-21T19:37:29.570Z,94145.59
2023-04-21T19:39:56.552Z,94171.69
2023-04-21T19:42:23.429Z,94164.31
2023-04-21T19:44:50.099Z,94185.03
2023-04-21T19:47:17.976Z,94175.44
2023-04-21T19:49:45.223Z,94157.88
2023-04-21T19:52:12.873Z,94177.66
2023-04-21T19:54:39.877Z,94154.38
2023-04-21T19:57:07.030Z,94168.28
2023-04-21T19:59:34.952Z,94192.50
2023-04-21T20:02:02.782Z,94246.78
2023-04-21T20:04:29.887Z,94253.22
2023-04-21T20:06:56.948Z,94239.84
2023-04-21T20:09:23.771Z,94234.56
2023-04-21T20:11:50.516Z,94244.34
2023-04-21T20:14:18.944Z,94261.44
2023-04-21T20:16:46.818Z,94253.63
2023-04-21T20:19:15.243Z,94210.81
2023-04-21T20:21:43.810Z,94256.44
2023-04-21T20:24:10.646Z,94235.59
2023-04-21T20:26:37.313Z,94257.78
2023-04-21T20:29:04.502Z,94256.31
2023-04-21T20:31:31.871Z,94241.44
2023-04-21T20:33:58.690Z,94213.41
2023-04-21T20:36:27.481Z,94242.19
2023-04-21T20:38:54.345Z,94227.34
2023-04-21T20:41:23.356Z,94234.75
2023-04-21T20:43:50.222Z,94229.75
2023-04-21T20:46:18.588Z,94242.53
2023-04-21T20:48:45.664Z,94241.66
2023-04-21T20:51:13.555Z,94224.97
2023-04-21T20:53:40.468Z,94220.13
2023-04-21T20:56:07.710Z,94208.03
2023-04-21T20:58:36.124Z,94231.53
2023-04-21T21:01:03.634Z,94220.25
2023-04-21T21:03:31.049Z,94232.63
2023-04-21T21:05:58.789Z,94225.94
2023-04-21T21:08:25.732Z,94215.78
2023-04-21T21:10:52.719Z,94218.09
2023-04-21T21:13:19.846Z,94229.75
2023-04-21T21:15:47.270Z,94241.63
2023-04-21T21:18:14.156Z,94258.56
2023-04-21T21:20:41.117Z,94233.56
2023-04-21T21:23:08.001Z,94250.84
2023-04-21T21:25:35.337Z,94265.16
2023-04-21T21:28:02.377Z,94271.66
2023-04-21T21:30:29.138Z,94261.38
2023-04-21T21:32:56.433Z,94274.25
2023-04-21T21:35:23.422Z,94262.28
2023-04-21T21:37:50.242Z,94256.66
2023-04-21T21:40:17.507Z,94252.28
2023-04-21T21:42:44.221Z,94248.34
2023-04-21T21:45:11.578Z,94216.25
2023-04-21T21:47:41.727Z,94244.88
2023-04-21T21:50:12.624Z,94263.19
2023-04-21T21:52:39.653Z,94247.75
2023-04-21T21:55:07.138Z,94249.25
2023-04-21T21:57:34.234Z,94241.28
2023-04-21T22:00:02.560Z,94250.44
2023-04-21T22:02:32.514Z,94238.09
2023-04-21T22:04:59.715Z,94251.22
2023-04-21T22:07:26.757Z,94258.81
2023-04-21T22:09:53.588Z,94239.53
2023-04-21T22:12:20.501Z,94244.28
2023-04-21T22:14:47.577Z,94247.44
2023-04-21T22:17:15.955Z,94251.63
2023-04-21T22:19:43.211Z,94240.28
2023-04-21T22:22:10.599Z,94229.16
2023-04-21T22:24:37.749Z,94248.84
2023-04-21T22:27:04.630Z,94251.97
2023-04-21T22:29:31.481Z,94239.81
2023-04-21T22:31:58.395Z,94242.97
2023-04-21T22:34:25.225Z,94226.09
2023-04-21T22:36:53.414Z,94229.75
2023-04-21T22:39:20.680Z,94246.44
2023-04-21T22:41:48.039Z,94257.44
2023-04-21T22:44:14.880Z,94242.16
2023-04-21T22:46:42.032Z,94247.41
2023-04-21T22:49:09.263Z,94245.66
2023-04-21T22:51:36.384Z,94257.28
2023-04-21T22:54:03.450Z,94248.59
2023-04-21T22:56:31.676Z,94237.03
2023-04-21T22:58:58.632Z,94253.16
2023-04-21T23:01:25.581Z,94250.41
2023-04-21T23:03:52.375Z,94245.06
2023-04-21T23:06:19.711Z,94258.22
2023-04-21T23:08:46.722Z,94268.63
2023-04-21T23:11:13.894Z,94248.66
2023-04-21T23:13:40.640Z,94254.19
2023-04-21T23:16:07.458Z,94255.16
2023-04-21T23:18:34.815Z,94188.81
2023-04-21T23:21:01.777Z,94240.63
2023-04-21T23:23:28.665Z,94245.94
2023-04-21T23:25:55.710Z,94237.31
2023-04-21T23:28:23.868Z,94246.44
2023-04-21T23:30:51.281Z,94251.94
2023-04-21T23:33:18.490Z,94213.84
2023-04-21T23:35:45.508Z,94214.38
2023-04-21T23:38:12.426Z,94250.97
2023-04-21T23:40:39.120Z,94234.97
2023-04-21T23:43:06.113Z,94234.66
2023-04-21T23:45:33.726Z,94232.00
2023-04-21T23:48:00.551Z,94242.81
2023-04-21T23:50:27.543Z,94207.44
2023-04-21T23:52:54.413Z,94237.28
2023-04-21T23:55:21.397Z,94233.78
2023-04-21T23:57:48.616Z,94244.28
